Time;durP1;ratioP1;P1;durP2;ratioP2;P2;SDS_P1;SDS_P2;PMS_P1;PMS_P2;Temp;Humidity;BMP_temperature;BMP_pressure;BME280_temperature;BME280_humidity;BME280_pressure;Samples;Min_cycle;Max_cycle;Signal;HPM_P1;HPM_P2
2021/12/08 00:02:59;;;;;;;22.63;12.68;;;;;;;8.13;100.00;100060.81;10496316;28;20547;-74
2021/12/08 00:08:00;;;;;;;22.20;12.48;;;;;;;8.13;100.00;100052.88;10495002;28;20045;-74
2021/12/08 00:13:07;;;;;;;21.98;13.40;;;;;;;8.15;100.00;100052.72;10494792;28;20110;-74
2021/12/08 00:18:21;;;;;;;26.15;12.75;;;;;;;7.89;100.00;99999.88;10495033;28;20037;-74
2021/12/08 00:23:23;;;;;;;23.60;13.98;;;;;;;8.16;100.00;100052.53;10494798;28;20467;-74
2021/12/08 00:28:25;;;;;;;27.15;13.48;;;;;;;7.14;100.00;99872.81;10494954;28;20407;-74
2021/12/08 00:33:28;;;;;;;26.42;12.95;;;;;;;7.62;100.00;99946.19;10477823;28;20079;-74
2021/12/08 00:38:30;;;;;;;27.00;13.07;;;;;;;7.00;100.00;99830.19;10476570;28;20044;-74
2021/12/08 00:43:30;;;;;;;27.25;14.02;;;;;;;8.07;100.00;100000.59;10500386;28;20044;-74
2021/12/08 00:48:31;;;;;;;23.55;13.27;;;;;;;7.91;100.00;99966.16;10502677;28;20114;-74
2021/12/08 00:53:32;;;;;;;33.30;13.75;;;;;;;8.00;100.00;99986.34;10502854;28;20407;-74
2021/12/08 00:58:33;;;;;;;28.50;14.05;;;;;;;8.21;100.00;100010.56;10502718;28;20041;-74
2021/12/08 01:03:36;;;;;;;26.27;13.93;;;;;;;7.28;100.00;99837.88;10501333;28;20048;-74
2021/12/08 01:08:36;;;;;;;28.17;14.20;;;;;;;8.23;100.00;99992.72;10501316;28;20055;-74
2021/12/08 01:13:39;;;;;;;28.73;13.27;;;;;;;8.23;100.00;100011.25;10502064;28;20503;-74
2021/12/08 01:18:41;;;;;;;24.48;12.52;;;;;;;7.12;100.00;99822.81;10502178;28;20420;-74
2021/12/08 01:23:41;;;;;;;27.05;12.25;;;;;;;7.21;100.00;99850.91;10500743;28;20040;-74
2021/12/08 01:28:43;;;;;;;28.38;13.43;;;;;;;7.75;100.00;99925.47;10501071;28;20032;-74
2021/12/08 01:33:45;;;;;;;31.85;13.48;;;;;;;7.30;100.00;99868.44;10500818;28;20042;-74
2021/12/08 01:38:46;;;;;;;25.35;12.32;;;;;;;7.16;100.00;99837.34;10483868;28;20040;-74
2021/12/08 01:49:06;;;;;;;22.23;12.13;;;;;;;7.07;100.00;99817.97;10500159;28;20519;-74
2021/12/08 01:54:07;;;;;;;24.45;11.88;;;;;;;6.47;100.00;99719.53;10499778;28;20048;-74
2021/12/08 01:59:09;;;;;;;25.33;12.32;;;;;;;6.86;100.00;99781.41;10499895;28;20404;-74
2021/12/08 02:04:11;;;;;;;32.47;12.13;;;;;;;7.95;100.00;99951.63;10499808;28;20044;-74
2021/12/08 02:09:16;;;;;;;22.92;12.07;;;;;;;8.11;100.00;99975.50;10499186;28;20408;-74
2021/12/08 02:14:17;;;;;;;22.45;12.35;;;;;;;8.11;100.00;99978.13;10499111;28;20037;-74
2021/12/08 02:19:19;;;;;;;29.13;13.50;;;;;;;7.63;100.00;99900.31;10499550;28;20044;-74
2021/12/08 02:24:22;;;;;;;33.50;14.50;;;;;;;8.16;100.00;99985.56;10499346;28;20543;-74
2021/12/08 02:29:42;;;;;;;31.38;14.55;;;;;;;8.01;100.00;99972.13;10498933;28;20527;-74
2021/12/08 02:50:44;;;;;;;24.23;14.43;;;;;;;8.06;100.00;99927.53;10496966;28;20052;-74
2021/12/08 02:55:45;;;;;;;38.35;16.52;;;;;;;7.26;100.00;99779.91;10479386;28;20060;-74
2021/12/08 03:00:52;;;;;;;27.65;14.50;;;;;;;7.53;100.00;99804.44;10487251;28;20044;-74
2021/12/08 03:05:53;;;;;;;35.42;15.23;;;;;;;8.42;100.00;99927.28;10474600;28;20044;-74
2021/12/08 03:10:54;;;;;;;34.85;14.57;;;;;;;8.26;100.00;99898.97;10465989;28;20057;-74
2021/12/08 03:15:55;;;;;;;35.83;14.32;;;;;;;7.97;100.00;99842.03;10454883;28;20488;-74
2021/12/08 03:20:55;;;;;;;37.85;14.65;;;;;;;7.83;100.00;99857.72;10455348;28;20048;-74
2021/12/08 03:25:59;;;;;;;40.50;15.35;;;;;;;8.28;100.00;99917.31;10455565;28;20485;-74
2021/12/08 03:31:08;;;;;;;35.55;14.88;;;;;;;8.24;100.00;99941.44;10478468;28;20412;-74
2021/12/08 03:36:09;;;;;;;33.42;14.48;;;;;;;7.85;100.00;99890.13;10492498;28;20131;-74
2021/12/08 03:41:11;;;;;;;47.10;15.55;;;;;;;7.28;100.00;99807.00;10495042;28;20127;-74
2021/12/08 03:46:16;;;;;;;38.60;14.05;;;;;;;8.14;100.00;99927.53;10494119;28;20558;-74
2021/12/08 03:51:17;;;;;;;;;;;;;;;8.32;100.00;99956.53;10477088;28;20071;-72
2021/12/08 03:56:18;;;;;;;32.33;13.82;;;;;;;8.16;100.00;99949.34;10494964;28;19932;-71
2021/12/08 04:01:19;;;;;;;37.03;14.90;;;;;;;7.50;100.00;99825.91;10492544;28;20043;-76
2021/12/08 04:06:40;;;;;;;46.72;16.00;;;;;;;7.70;100.00;99866.94;10494221;28;20416;-71
2021/12/08 04:11:41;;;;;;;41.67;16.85;;;;;;;7.57;100.00;99844.56;10495858;28;20488;-76
2021/12/08 04:16:57;;;;;;;42.85;17.73;;;;;;;8.37;100.00;99967.44;10500583;28;20037;-77
2021/12/08 04:22:04;;;;;;;32.97;16.02;;;;;;;7.88;100.00;99879.22;10504031;28;20135;-71
2021/12/08 04:27:11;;;;;;;42.55;14.43;;;;;;;8.45;100.00;99966.66;10503727;28;20037;-70
2021/12/08 04:32:16;;;;;;;30.73;15.30;;;;;;;7.32;100.00;99789.84;10497816;28;20047;-75
2021/12/08 04:37:23;;;;;;;;;;;;;;;8.59;100.00;99981.91;10496935;28;20641;-75
2021/12/08 04:42:56;;;;;;;41.97;15.68;;;;;;;7.39;100.00;99802.41;10490481;28;20433;-74
2021/12/08 05:09:14;;;;;;;;;;;;;;;8.63;100.00;99962.03;10502309;28;20040;-74
2021/12/08 05:14:21;;;;;;;69.15;18.98;;;;;;;7.16;100.00;99758.09;10501600;28;19942;-74
2021/12/08 05:19:27;;;;;;;77.38;19.67;;;;;;;7.96;100.00;99879.25;10494012;28;20543;-74
2021/12/08 05:24:33;;;;;;;87.38;19.02;;;;;;;8.09;100.00;99894.63;10500891;28;20062;-74
2021/12/08 05:29:42;;;;;;;88.40;21.83;;;;;;;8.32;100.00;99913.34;10482607;28;20072;-74
2021/12/08 05:34:44;;;;;;;117.22;22.38;;;;;;;8.17;100.00;99887.53;10500655;28;20482;-74
2021/12/08 05:39:45;;;;;;;105.55;22.55;;;;;;;8.14;100.00;99892.31;10501014;28;20098;-73
2021/12/08 05:44:46;;;;;;;125.43;24.50;;;;;;;7.91;100.00;99892.09;10482086;28;20044;-73
2021/12/08 05:49:48;;;;;;;82.28;23.33;;;;;;;7.85;100.00;99901.50;10500592;28;20052;-74
2021/12/08 05:54:50;;;;;;;113.75;25.23;;;;;;;6.75;100.00;99744.72;10499604;28;20094;-74
2021/12/08 05:59:52;;;;;;;77.60;22.52;;;;;;;7.53;100.00;99870.50;10500327;28;20052;-74
2021/12/08 06:04:53;;;;;;;93.47;24.42;;;;;;;7.89;100.00;99926.63;10500162;28;20044;-73
2021/12/08 06:10:01;;;;;;;88.22;24.63;;;;;;;7.34;100.00;99845.19;10499500;28;20479;-73
2021/12/08 06:15:03;;;;;;;63.45;23.70;;;;;;;7.76;100.00;99897.19;10481437;28;20040;-73
2021/12/08 06:20:07;;;;;;;84.93;23.67;;;;;;;8.03;100.00;99917.25;10498045;28;20531;-73
2021/12/08 06:25:12;;;;;;;69.13;24.48;;;;;;;7.94;100.00;99897.91;10498914;28;20047;-73
2021/12/08 06:30:18;;;;;;;67.05;23.83;;;;;;;8.26;100.00;99911.38;10498584;28;20090;-73
2021/12/08 06:35:27;;;;;;;72.75;25.85;;;;;;;8.37;100.00;99925.06;10498451;28;20040;-73
2021/12/08 06:40:36;;;;;;;77.50;24.15;;;;;;;8.50;100.00;99919.34;10497173;28;20068;-73
2021/12/08 06:45:41;;;;;;;85.32;25.23;;;;;;;8.44;100.00;99877.66;10480890;28;20040;-73
2021/12/08 06:51:05;;;;;;;76.93;28.70;;;;;;;8.55;100.00;99911.72;10496880;28;20052;-73
2021/12/08 06:56:23;;;;;;;65.85;23.75;;;;;;;8.63;100.00;99897.66;10490065;28;20060;-73
2021/12/08 07:06:43;;;;;;;58.63;21.58;;;;;;;8.73;100.00;99905.44;10496557;28;20044;-73
2021/12/08 07:11:45;;;;;;;58.13;22.45;;;;;;;8.64;100.00;99878.94;10496546;28;20040;-73
2021/12/08 07:16:50;;;;;;;61.60;22.77;;;;;;;8.95;100.00;99891.50;10479297;28;20381;-74
2021/12/08 07:21:52;;;;;;;;;;;;;;;9.10;100.00;99910.19;10497302;28;20477;-73
2021/12/08 07:26:59;;;;;;;57.55;22.05;;;;;;;8.83;100.00;99884.91;10495481;28;19962;-74
2021/12/08 07:32:06;;;;;;;53.22;22.23;;;;;;;9.03;100.00;99902.06;10495861;28;20424;-73
2021/12/08 07:37:13;;;;;;;70.28;23.25;;;;;;;8.30;100.00;99761.84;10495825;28;20494;-74
2021/12/08 07:42:29;;;;;;;60.38;23.08;;;;;;;8.45;100.00;99784.84;10496202;28;20051;-73
2021/12/08 07:47:31;;;;;;;57.30;23.30;;;;;;;8.44;100.00;99758.56;10495800;28;20152;-73
2021/12/08 07:52:36;;;;;;;62.75;25.02;;;;;;;8.59;100.00;99774.56;10496035;28;20127;-73
2021/12/08 07:57:38;;;;;;;64.85;25.17;;;;;;;9.17;100.00;99818.41;10495563;28;20059;-73
2021/12/08 08:02:39;;;;;;;57.35;24.52;;;;;;;9.37;100.00;99845.34;10495837;28;20044;-73
2021/12/08 08:07:42;;;;;;;63.78;26.20;;;;;;;8.51;100.00;99727.75;10493595;28;20040;-73
2021/12/08 08:12:47;;;;;;;57.45;25.60;;;;;;;9.37;100.00;99874.50;10494982;28;20109;-73
2021/12/08 08:17:52;;;;;;;44.53;21.48;;;;;;;8.69;100.00;99768.06;10494658;28;20040;-73
2021/12/08 08:22:54;;;;;;;36.22;21.00;;;;;;;9.20;100.00;99826.00;10495777;28;20082;-73
2021/12/08 08:27:55;;;;;;;39.03;20.83;;;;;;;8.61;100.00;99701.88;10495138;28;20039;-73
2021/12/08 08:32:58;;;;;;;34.72;20.40;;;;;;;8.96;100.00;99738.69;10477333;28;20426;-73
2021/12/08 08:38:01;;;;;;;42.63;20.60;;;;;;;9.67;100.00;99833.09;10493802;28;20441;-73
2021/12/08 08:43:03;;;;;;;44.22;21.05;;;;;;;9.68;100.00;99820.66;10494626;28;20044;-73
2021/12/08 08:48:10;;;;;;;39.28;21.02;;;;;;;9.85;100.00;99824.84;10495429;28;20449;-73
2021/12/08 08:53:12;;;;;;;43.25;22.35;;;;;;;8.36;100.00;99555.56;10494691;28;20051;-73
2021/12/08 08:58:13;;;;;;;40.78;22.67;;;;;;;9.10;100.00;99647.88;10494741;28;20040;-73
2021/12/08 09:03:21;;;;;;;38.60;21.90;;;;;;;9.91;100.00;99751.69;10496818;28;20036;-74
2021/12/08 09:08:26;;;;;;;45.30;23.20;;;;;;;8.65;100.00;99514.41;10501436;28;20041;-73
2021/12/08 09:13:32;;;;;;;;;;;;;;;10.28;100.00;99750.91;10484314;28;20511;-73
2021/12/08 09:18:52;;;;;;;46.35;24.13;;;;;;;9.91;100.00;99725.16;10501007;28;19916;-73
2021/12/08 09:24:01;;;;;;;42.30;24.17;;;;;;;10.11;100.00;99738.75;10501764;28;20522;-73
2021/12/08 09:29:15;;;;;;;43.67;23.67;;;;;;;10.06;100.00;99784.41;10501073;28;20045;-73
2021/12/08 09:34:31;;;;;;;44.20;25.23;;;;;;;9.27;100.00;99685.69;10500914;28;20060;-73
2021/12/08 09:39:37;;;;;;;44.95;24.15;;;;;;;9.21;100.00;99655.41;10499963;28;20032;-73
2021/12/08 09:44:49;;;;;;;37.53;21.75;;;;;;;9.78;97.25;99723.94;10500723;28;20535;-73
2021/12/08 09:49:50;;;;;;;47.17;22.52;;;;;;;9.05;96.76;99603.34;10501148;28;20061;-73
2021/12/08 09:54:51;;;;;;;46.00;21.95;;;;;;;9.15;95.95;99597.81;10500722;28;20049;-73
2021/12/08 09:59:52;;;;;;;40.67;22.77;;;;;;;9.92;95.89;99714.34;10500192;28;20043;-73
2021/12/08 10:04:58;;;;;;;35.17;20.92;;;;;;;8.48;94.01;99495.16;10482502;28;20036;-73
2021/12/08 10:09:59;;;;;;;33.88;20.25;;;;;;;9.77;94.98;99714.31;10481098;28;20082;-73
2021/12/08 10:15:02;;;;;;;40.47;22.50;;;;;;;8.96;94.58;99657.38;10480653;28;20051;-73
2021/12/08 10:20:14;;;;;;;33.67;20.45;;;;;;;9.90;93.77;99811.03;10498870;28;20472;-73
2021/12/08 10:25:22;;;;;;;40.97;21.85;;;;;;;8.95;92.37;99674.28;10498416;28;20047;-73
2021/12/08 10:30:24;;;;;;;55.33;27.33;;;;;;;9.51;92.94;99743.00;10499029;28;20083;-73
2021/12/08 10:35:47;;;;;;;55.45;27.73;;;;;;;9.98;91.32;99779.97;10480687;28;20437;-73
2021/12/08 10:41:04;;;;;;;44.55;21.88;;;;;;;9.07;90.81;99638.44;10497916;28;20122;-73
2021/12/08 10:46:11;;;;;;;43.63;20.05;;;;;;;9.09;90.80;99625.88;10479920;28;20085;-73
2021/12/08 10:56:50;;;;;;;39.08;22.65;;;;;;;9.66;92.01;99700.66;10497101;28;20044;-73
2021/12/08 11:01:53;;;;;;;37.28;21.08;;;;;;;9.21;91.60;99636.03;10497131;28;20083;-73
2021/12/08 11:07:06;;;;;;;42.30;23.05;;;;;;;9.52;90.60;99681.88;10496889;28;20063;-73
2021/12/08 11:12:08;;;;;;;44.40;22.57;;;;;;;9.45;92.10;99683.56;10478948;28;20446;-73
2021/12/08 11:17:26;;;;;;;39.65;21.23;;;;;;;9.45;91.08;99682.75;10496306;28;20041;-73
2021/12/08 11:22:31;;;;;;;42.35;22.35;;;;;;;9.37;92.23;99707.50;10496084;28;20082;-73
2021/12/08 11:27:33;;;;;;;;;;;;;;;9.48;92.93;99677.09;10495852;28;20135;-73
2021/12/08 11:32:34;;;;;;;34.60;20.02;;;;;;;7.98;92.39;99454.88;10495852;28;19916;-73
2021/12/08 11:37:35;;;;;;;50.67;32.28;;;;;;;9.30;92.54;99667.63;10496930;28;20036;-73
2021/12/08 11:42:36;;;;;;;39.35;21.52;;;;;;;9.38;92.03;99715.25;10496703;28;20051;-73
2021/12/08 11:47:37;;;;;;;40.00;21.15;;;;;;;9.41;92.12;99768.94;10495851;28;20059;-73
2021/12/08 11:52:38;;;;;;;41.65;23.15;;;;;;;9.38;92.49;99801.91;10495928;28;20427;-73
2021/12/08 11:57:44;;;;;;;37.63;21.77;;;;;;;9.34;92.56;99776.75;10496338;28;20036;-73
2021/12/08 12:03:07;;;;;;;38.15;22.58;;;;;;;9.04;92.67;99736.00;10495800;28;20381;-73
2021/12/08 12:08:12;;;;;;;46.13;22.00;;;;;;;8.34;92.19;99629.00;10495763;28;20562;-73
2021/12/08 12:13:13;;;;;;;64.40;33.45;;;;;;;9.11;92.75;99766.09;10495272;28;20135;-73
2021/12/08 12:18:19;;;;;;;47.03;23.85;;;;;;;8.97;92.98;99737.69;10494921;28;20063;-73
2021/12/08 12:23:40;;;;;;;57.20;29.40;;;;;;;8.63;92.48;99654.06;10495963;28;20420;-73
2021/12/08 12:28:55;;;;;;;53.15;30.02;;;;;;;9.10;91.90;99707.00;10495845;28;20040;-73
2021/12/08 12:33:57;;;;;;;39.95;21.63;;;;;;;8.66;92.67;99651.09;10495161;28;20090;-73
2021/12/08 12:39:23;;;;;;;38.80;22.20;;;;;;;9.09;91.74;99728.34;10486207;28;20041;-73
2021/12/08 12:44:31;;;;;;;37.60;21.80;;;;;;;8.24;92.02;99612.50;10476217;28;20048;-73
2021/12/08 12:49:34;;;;;;;39.70;22.30;;;;;;;8.94;92.07;99693.00;10488344;28;20056;-73
2021/12/08 12:54:35;;;;;;;42.63;23.15;;;;;;;8.31;92.47;99594.13;10502351;28;20186;-73
2021/12/08 12:59:49;;;;;;;42.42;25.55;;;;;;;8.98;92.81;99704.91;10499743;28;20040;-72
2021/12/08 13:04:52;;;;;;;;;;;;;;;9.05;92.72;99689.97;10501622;28;20059;-73
2021/12/08 13:09:57;;;;;;;44.42;26.08;;;;;;;8.70;93.39;99681.50;10486551;28;19965;-74
2021/12/08 13:15:20;;;;;;;46.10;22.92;;;;;;;8.62;93.45;99660.38;10493906;28;20046;-74
2021/12/08 13:20:26;;;;;;;39.55;21.00;;;;;;;8.66;93.73;99682.84;10496508;28;20131;-74
2021/12/08 13:25:54;;;;;;;35.33;20.83;;;;;;;7.41;93.83;99460.38;10495891;28;20041;-74
2021/12/08 13:31:05;;;;;;;37.35;21.30;;;;;;;8.87;93.99;99719.34;10496047;28;20079;-74
2021/12/08 13:36:18;;;;;;;47.03;23.80;;;;;;;8.84;93.88;99682.63;10493863;28;20484;-74
2021/12/08 13:41:19;;;;;;;44.42;23.83;;;;;;;8.39;94.51;99631.19;10495365;28;20076;-74
2021/12/08 13:46:38;;;;;;;38.63;22.10;;;;;;;8.85;94.88;99730.09;10495422;28;20438;-74
2021/12/08 13:51:40;;;;;;;37.17;21.48;;;;;;;8.53;94.75;99685.25;10494737;28;20044;-75
2021/12/08 13:56:41;;;;;;;34.05;20.38;;;;;;;8.74;94.81;99716.44;10486862;28;20119;-76
2021/12/08 14:01:42;;;;;;;34.70;20.40;;;;;;;8.04;94.87;99585.63;10487986;28;20049;-70
2021/12/08 14:06:43;;;;;;;37.13;20.80;;;;;;;7.73;95.00;99546.69;10484387;28;20527;-73
2021/12/08 14:11:44;;;;;;;39.15;21.73;;;;;;;7.91;95.39;99598.56;10487040;28;20054;-73
2021/12/08 14:16:48;;;;;;;46.00;24.65;;;;;;;8.79;95.39;99703.50;10491605;28;20044;-73
2021/12/08 14:21:50;;;;;;;43.95;21.75;;;;;;;8.30;95.43;99616.31;10494913;28;20048;-73
2021/12/08 14:26:51;;;;;;;35.20;21.38;;;;;;;7.68;95.64;99537.63;10476433;28;20040;-73
2021/12/08 14:31:54;;;;;;;37.65;22.88;;;;;;;8.77;95.63;99686.97;10455981;28;20044;-73
2021/12/08 14:37:02;;;;;;;39.72;22.55;;;;;;;8.71;96.08;99708.84;10454025;28;20045;-73
2021/12/08 14:42:05;;;;;;;39.05;23.42;;;;;;;8.50;96.22;99669.69;10456168;28;20048;-73
2021/12/08 14:47:10;;;;;;;35.85;22.15;;;;;;;8.73;96.67;99717.41;10456660;28;20056;-73
2021/12/08 14:52:12;;;;;;;;;;;;;;;8.85;96.35;99710.75;10456769;28;20098;-73
2021/12/08 14:57:21;;;;;;;39.60;21.33;;;;;;;8.75;96.14;99697.72;10459806;28;20319;-73
2021/12/08 15:02:33;;;;;;;43.38;20.48;;;;;;;7.05;96.32;99430.91;10464616;28;20059;-71
2021/12/08 15:07:34;;;;;;;44.00;23.23;;;;;;;7.88;96.48;99590.97;10496227;28;20041;-71
2021/12/08 15:12:38;;;;;;;38.33;21.08;;;;;;;8.67;96.28;99722.41;10473582;28;20062;-70
2021/12/08 15:17:39;;;;;;;43.60;22.83;;;;;;;8.72;96.23;99758.13;10482355;28;20111;-69
2021/12/08 15:22:45;;;;;;;36.00;22.13;;;;;;;8.66;96.62;99755.16;10491318;28;20036;-70
2021/12/08 15:27:52;;;;;;;42.97;23.48;;;;;;;8.56;96.66;99757.19;10463913;28;20037;-70
2021/12/08 15:33:06;;;;;;;40.65;23.30;;;;;;;7.57;96.56;99577.63;10462251;28;20495;-73
2021/12/08 15:38:09;;;;;;;44.60;24.13;;;;;;;8.40;96.69;99702.44;10495583;28;20093;-73
2021/12/08 15:43:13;;;;;;;41.28;22.60;;;;;;;8.56;97.00;99725.44;10495030;28;20135;-73
2021/12/08 15:48:24;;;;;;;37.38;21.80;;;;;;;8.31;97.21;99700.78;10488489;28;20143;-74
2021/12/08 15:53:27;;;;;;;42.10;22.80;;;;;;;7.78;96.94;99607.84;10474484;28;20048;-73
2021/12/08 15:58:50;;;;;;;40.37;21.67;;;;;;;8.55;97.48;99731.69;10471551;28;20036;-73
2021/12/08 16:04:00;;;;;;;41.38;22.52;;;;;;;8.44;96.82;99729.44;10487073;28;20044;-73
2021/12/08 16:09:31;;;;;;;41.92;23.40;;;;;;;8.63;97.41;99736.97;10493291;28;20040;-73
2021/12/08 16:14:34;;;;;;;41.05;22.30;;;;;;;6.85;96.98;99470.88;10499349;28;20044;-73
2021/12/08 16:19:38;;;;;;;43.42;22.75;;;;;;;8.59;97.21;99763.97;10500410;28;20534;-73
2021/12/08 16:24:41;;;;;;;45.05;22.67;;;;;;;7.59;97.24;99613.47;10498846;28;20032;-73
2021/12/08 16:29:42;;;;;;;44.80;22.92;;;;;;;8.50;97.67;99752.56;10484748;28;20045;-73
2021/12/08 16:34:46;;;;;;;48.17;25.05;;;;;;;8.37;97.61;99716.00;10486218;28;20102;-73
2021/12/08 16:44:56;;;;;;;34.58;21.85;;;;;;;8.48;97.88;99743.16;10501050;28;20051;-73
2021/12/08 16:49:57;;;;;;;50.17;24.00;;;;;;;8.12;97.51;99680.84;10495599;28;20044;-73
2021/12/08 16:54:58;;;;;;;40.85;21.58;;;;;;;7.23;98.04;99533.72;10497456;28;20044;-73
2021/12/08 16:59:59;;;;;;;40.85;22.70;;;;;;;7.77;98.32;99615.94;10481825;28;20036;-73
2021/12/08 17:05:00;;;;;;;41.35;21.90;;;;;;;7.86;98.00;99624.66;10499570;28;20500;-73
2021/12/08 17:10:02;;;;;;;42.38;21.98;;;;;;;8.39;98.41;99711.41;10498977;28;20064;-73
2021/12/08 17:15:08;;;;;;;41.47;21.55;;;;;;;8.31;98.82;99699.97;10499672;28;20124;-72
2021/12/08 17:20:11;;;;;;;45.20;22.27;;;;;;;8.48;98.52;99725.44;10498595;28;20052;-73
2021/12/08 17:25:12;;;;;;;39.90;22.13;;;;;;;7.32;98.35;99528.25;10479539;28;20078;-73
2021/12/08 17:30:20;;;;;;;43.55;21.23;;;;;;;8.15;98.68;99661.97;10498967;28;20059;-73
2021/12/08 17:35:21;;;;;;;36.10;20.13;;;;;;;7.65;98.56;99588.19;10476665;28;20056;-73
2021/12/08 17:40:23;;;;;;;38.38;21.20;;;;;;;8.27;98.83;99664.28;10500108;28;20033;-72
2021/12/08 17:45:29;;;;;;;40.63;19.65;;;;;;;7.55;98.64;99554.00;10495396;28;20059;-73
2021/12/08 17:50:30;;;;;;;41.40;20.70;;;;;;;8.21;98.72;99656.00;10497726;28;20520;-73
2021/12/08 17:55:32;;;;;;;33.63;20.15;;;;;;;8.42;99.11;99681.13;10500500;28;20369;-73
2021/12/08 18:00:38;;;;;;;47.45;21.55;;;;;;;7.56;99.22;99513.38;10499990;28;20040;-73
2021/12/08 18:05:40;;;;;;;39.83;22.27;;;;;;;8.38;99.21;99671.84;10499069;28;20040;-73
2021/12/08 18:10:42;;;;;;;37.97;19.48;;;;;;;7.72;99.46;99595.28;10499776;28;20048;-73
2021/12/08 18:15:44;;;;;;;39.15;19.67;;;;;;;8.16;99.69;99641.63;10494995;28;20055;-73
2021/12/08 18:20:46;;;;;;;31.83;18.30;;;;;;;8.49;99.80;99689.19;10480190;28;20043;-73
2021/12/08 18:25:47;;;;;;;34.40;19.15;;;;;;;8.36;99.79;99687.88;10496627;28;20106;-73
2021/12/08 18:30:50;;;;;;;40.17;19.52;;;;;;;8.51;100.00;99708.41;10496580;28;20033;-73
2021/12/08 18:41:05;;;;;;;41.45;21.95;;;;;;;7.51;99.94;99536.84;10493074;28;20037;-73
2021/12/08 18:46:09;;;;;;;42.65;18.70;;;;;;;7.92;99.90;99581.69;10495503;28;20381;-73
2021/12/08 18:51:14;;;;;;;41.73;21.07;;;;;;;8.29;100.00;99641.94;10496246;28;20037;-73
2021/12/08 18:56:17;;;;;;;41.22;20.98;;;;;;;8.37;100.00;99675.47;10494979;28;20106;-73
2021/12/08 19:01:22;;;;;;;37.47;20.67;;;;;;;7.52;100.00;99527.91;10496341;28;20044;-73
2021/12/08 19:06:24;;;;;;;40.97;20.77;;;;;;;8.41;100.00;99629.19;10495222;28;20491;-73
2021/12/08 19:11:27;;;;;;;34.33;19.95;;;;;;;8.17;100.00;99615.03;10477457;28;20780;-73
2021/12/08 19:16:28;;;;;;;34.78;19.50;;;;;;;8.33;100.00;99655.66;10491627;28;20072;-73
2021/12/08 19:21:29;;;;;;;39.78;19.73;;;;;;;7.28;99.81;99455.63;10494880;28;20404;-73
2021/12/08 19:26:30;;;;;;;44.28;19.10;;;;;;;8.43;100.00;99664.25;10492488;28;20047;-73
2021/12/08 19:31:31;;;;;;;36.38;18.52;;;;;;;8.39;100.00;99707.94;10496148;28;20048;-73
2021/12/08 19:36:32;;;;;;;41.65;20.23;;;;;;;7.54;100.00;99549.72;10465922;28;20412;-73
2021/12/08 19:41:33;;;;;;;40.90;19.52;;;;;;;8.18;100.00;99639.66;10478928;28;20040;-73
2021/12/08 19:46:34;;;;;;;42.20;20.50;;;;;;;7.92;100.00;99629.28;10495384;28;20139;-73
2021/12/08 19:51:39;;;;;;;39.70;18.05;;;;;;;8.43;100.00;99715.34;10495447;28;20044;-73
2021/12/08 19:56:41;;;;;;;39.90;20.40;;;;;;;8.39;100.00;99716.69;10454326;28;20045;-73
2021/12/08 20:01:43;;;;;;;44.97;20.65;;;;;;;7.22;100.00;99506.50;10454681;28;20064;-73
2021/12/08 20:06:45;;;;;;;46.72;21.83;;;;;;;8.34;100.00;99702.28;10453438;28;20048;-73
2021/12/08 20:11:48;;;;;;;45.92;20.90;;;;;;;8.34;100.00;99708.41;10435874;28;20506;-73
2021/12/08 20:16:48;;;;;;;44.83;21.90;;;;;;;8.23;100.00;99691.06;10453584;28;20045;-73
2021/12/08 20:21:50;;;;;;;46.53;21.55;;;;;;;7.59;100.00;99589.69;10454674;28;20044;-73
2021/12/08 20:26:52;;;;;;;45.20;20.48;;;;;;;7.65;100.00;99594.28;10453181;28;20052;-73
2021/12/08 20:31:53;;;;;;;41.08;20.17;;;;;;;7.48;100.00;99566.25;10453568;28;20037;-73
2021/12/08 20:36:54;;;;;;;41.67;20.20;;;;;;;8.04;100.00;99643.81;10453752;28;20096;-73
2021/12/08 20:41:54;;;;;;;43.38;17.95;;;;;;;8.02;100.00;99651.09;10453359;28;20037;-73
2021/12/08 20:46:56;;;;;;;35.92;18.92;;;;;;;8.22;100.00;99696.50;10453261;28;20056;-73
2021/12/08 20:51:59;;;;;;;33.38;19.05;;;;;;;8.23;100.00;99696.38;10452745;28;20500;-73
2021/12/08 20:57:05;;;;;;;40.42;19.52;;;;;;;7.73;100.00;99614.63;10435073;28;20056;-73
2021/12/08 21:02:09;;;;;;;35.45;18.40;;;;;;;7.35;100.00;99550.88;10471996;28;20147;-73
2021/12/08 21:07:10;;;;;;;;;;;;;;;8.21;100.00;99687.75;10502510;28;20051;-73
2021/12/08 21:12:11;;;;;;;45.95;21.75;;;;;;;7.54;100.00;99645.69;10500190;28;19916;-73
2021/12/08 21:17:12;;;;;;;39.53;19.42;;;;;;;7.60;100.00;99670.66;10501835;28;20044;-73
2021/12/08 21:22:15;;;;;;;49.30;20.95;;;;;;;7.47;100.00;99662.38;10500887;28;20044;-73
2021/12/08 21:27:16;;;;;;;39.22;20.98;;;;;;;6.64;100.00;99536.50;10500921;28;20060;-74
2021/12/08 21:32:17;;;;;;;45.47;20.08;;;;;;;7.30;100.00;99654.44;10501596;28;20123;-73
2021/12/08 21:37:19;;;;;;;38.28;18.90;;;;;;;7.34;100.00;99683.19;10500916;28;20028;-73
2021/12/08 21:42:19;;;;;;;29.50;16.02;;;;;;;6.90;100.00;99617.41;10500716;28;20036;-73
2021/12/08 21:47:20;;;;;;;31.73;15.45;;;;;;;7.23;100.00;99714.19;10500333;28;20515;-73
2021/12/08 21:52:21;;;;;;;33.22;16.52;;;;;;;7.18;100.00;99737.63;10500750;28;20416;-73
2021/12/08 21:57:22;;;;;;;33.20;17.77;;;;;;;7.10;100.00;99724.41;10500171;28;20037;-73
2021/12/08 22:02:23;;;;;;;38.85;17.90;;;;;;;6.98;100.00;99721.22;10499701;28;20037;-73
2021/12/08 22:07:24;;;;;;;33.15;16.27;;;;;;;6.83;100.00;99699.88;10499202;28;20040;-74
2021/12/08 22:12:25;;;;;;;27.50;16.70;;;;;;;6.71;100.00;99672.13;10499199;28;20037;-74
2021/12/08 22:17:26;;;;;;;36.08;17.98;;;;;;;6.34;100.00;99609.97;10499281;28;20077;-73
2021/12/08 22:22:28;;;;;;;36.70;18.55;;;;;;;6.99;100.00;99729.97;10499224;28;20369;-73
2021/12/08 22:27:29;;;;;;;39.00;18.17;;;;;;;5.82;100.00;99528.28;10498899;28;20636;-73
2021/12/08 22:32:30;;;;;;;34.70;17.55;;;;;;;6.92;100.00;99726.31;10497877;28;20040;-74
2021/12/08 22:37:32;;;;;;;34.08;18.50;;;;;;;6.87;100.00;99750.56;10498980;28;20047;-73
2021/12/08 22:42:34;;;;;;;35.67;18.38;;;;;;;7.17;100.00;99777.41;10498310;28;20048;-73
2021/12/08 22:47:40;;;;;;;31.77;16.75;;;;;;;6.22;100.00;99618.31;10498095;28;20114;-73
2021/12/08 22:52:42;;;;;;;33.35;17.13;;;;;;;7.07;100.00;99740.56;10498436;28;20047;-73
2021/12/08 22:57:44;;;;;;;30.70;15.88;;;;;;;6.60;100.00;99675.88;10497279;28;20037;-74
2021/12/08 23:02:50;;;;;;;35.00;19.15;;;;;;;6.72;100.00;99697.53;10497467;28;20044;-74
2021/12/08 23:07:52;;;;;;;26.80;14.68;;;;;;;5.91;100.00;99547.59;10497192;28;20053;-73
2021/12/08 23:12:53;;;;;;;28.50;14.63;;;;;;;6.96;100.00;99711.81;10496584;28;20040;-73
2021/12/08 23:17:55;;;;;;;26.45;13.90;;;;;;;6.86;100.00;99709.31;10496433;28;20067;-73
2021/12/08 23:22:57;;;;;;;32.20;16.30;;;;;;;7.18;100.00;99776.41;10496284;28;20102;-73
2021/12/08 23:27:57;;;;;;;25.75;15.77;;;;;;;7.21;100.00;99794.56;10496330;28;20123;-73
2021/12/08 23:32:59;;;;;;;36.15;16.35;;;;;;;7.25;100.00;99802.03;10496354;28;20119;-73
2021/12/08 23:43:05;;;;;;;30.23;15.07;;;;;;;7.19;100.00;99801.84;10496361;28;20045;-73
2021/12/08 23:48:07;;;;;;;26.08;14.57;;;;;;;6.91;100.00;99770.38;10496694;28;20064;-73
2021/12/08 23:53:08;;;;;;;26.25;14.35;;;;;;;6.24;100.00;99627.72;10495939;28;20048;-73
2021/12/08 23:58:10;;;;;;;28.58;14.80;;;;;;;7.31;100.00;99817.25;10496591;28;20041;-73
